Airfield :
LOGIN :

Register | Disclaimer

   EN    FR    IT 

 










Legend :    VFR   Marginal VFR   IFR   Intensive IFR   Very Intensive IFR
Visi :
Ceiling :
>= 8 km
>= 3000ft
5 to 8 km
1000 to 3000 ft
1500m to 5 km
500 to 1000 ft
800 to 1500m
200 to 500 ft
< 800m
< 200 ft
Symbols :   Thunderstorms  Fog  Heavy snow  Heavy precipitations  Wind > 20 kt
SIGMETs :     Misc.  Thunderstorms  Icing  Turbulence  Mountain Waves  Volcanic Ashes







- Airport Elevation : 157 ft
- IATA code : LIL
- Download approach charts


LFQQ - Lille Lesquin

CURRENT METAR :
  • 190700Z AUTO 13006KT 8000 NSC 11/10 Q1009 NOSIG

EXPIRED METARs :
  • 190630Z AUTO 11004KT 7000 NSC 11/09 Q1009 NOSIG
  • 190600Z AUTO 14005KT 8000 NSC 11/09 Q1009 NOSIG
  • 190530Z AUTO 11003KT 8000 NSC 11/09 Q1009 NOSIG
  • 190500Z AUTO 13004KT 7000 NSC 11/10 Q1009 TEMPO 2000 BR
  • 190430Z AUTO VRB03KT 7000 NSC 11/10 Q1009 TEMPO 2000 BR
  • 190400Z AUTO 08003KT 7000 NSC 12/10 Q1009 TEMPO 2000 BR

TAF TAF LFQQ
Valid from the 19 at 06:00 until the 20 at 12:00 UTC


190500Z 1906/2012 09005KT 8000 NSC
BECMG 1909/1911 18010KT
BECMG 2000/2003 18015G25KT BKN025
TEMPO 2003/2007 4000 RA BKN013
ATIS : +33 3 20 16 19 54
No reported NOTAMs for that airfield.



MET'MAP, your aeronautical weather chart ! - Copyright ORBIFLY December 2007 - Disclaimer

ORBIFLY MET'MAP TEAM :

Programming & Development : Alexandra Zaïnal
Concept & Development : Baudouin d'Aumeries
Co-Development & Prog : Marc-Olivier Méhu
Technical & hardware support : Manuel Goepfert

Contact : metmap@orbifly.com




SOURCES & CREDITS :

   NOAA